Time;durP1;ratioP1;P1;durP2;ratioP2;P2;SDS_P1;SDS_P2;PMS_P1;PMS_P2;Temp;Humidity;BMP_temperature;BMP_pressure;BME280_temperature;BME280_humidity;BME280_pressure;Samples;Min_cycle;Max_cycle;Signal;HPM_P1;HPM_P2
2023/02/19 00:01:07;;;;;;;7.70;7.50;;;10.20;99.90;;;;;;5057993;28;20474;-74
2023/02/19 00:03:34;;;;;;;7.13;6.93;;;10.20;99.90;;;;;;5049310;28;20487;-72
2023/02/19 00:06:01;;;;;;;7.57;7.37;;;10.20;99.90;;;;;;5058253;28;20447;-72
2023/02/19 00:08:30;;;;;;;8.43;8.13;;;10.10;99.90;;;;;;5058349;28;20999;-72
2023/02/19 00:11:01;;;;;;;8.40;8.10;;;10.10;99.90;;;;;;5053901;28;20555;-71
2023/02/19 00:13:27;;;;;;;8.37;8.07;;;10.10;99.90;;;;;;5050175;28;21141;-73
2023/02/19 00:15:56;;;;;;;8.23;7.93;;;10.10;99.90;;;;;;5055350;28;20973;-72
2023/02/19 00:18:23;;;;;;;8.13;7.83;;;10.20;99.90;;;;;;5057977;28;20524;-72
2023/02/19 00:20:50;;;;;;;7.87;7.57;;;10.20;99.90;;;;;;5061466;28;20467;-71
2023/02/19 00:23:16;;;;;;;8.03;7.73;;;10.10;99.90;;;;;;5052574;28;20949;-72
2023/02/19 00:25:43;;;;;;;7.70;7.50;;;10.10;99.90;;;;;;5054385;28;20549;-72
2023/02/19 00:28:10;;;;;;;7.67;7.47;;;10.10;99.90;;;;;;5059059;28;20470;-72
2023/02/19 00:30:37;;;;;;;9.00;8.70;;;10.10;99.90;;;;;;5064395;28;20508;-74
2023/02/19 00:33:07;;;;;;;8.70;8.40;;;10.10;99.90;;;;;;5047003;28;20550;-73
2023/02/19 00:35:34;;;;;;;8.50;8.20;;;10.10;99.90;;;;;;5059717;28;20556;-72
2023/02/19 00:38:01;;;;;;;8.90;8.60;;;10.20;99.90;;;;;;5049869;28;20462;-72
2023/02/19 00:40:28;;;;;;;8.47;8.17;;;10.20;99.90;;;;;;5057799;28;20985;-75
2023/02/19 00:42:55;;;;;;;7.97;7.67;;;10.20;99.90;;;;;;5050945;28;20492;-74
2023/02/19 00:45:22;;;;;;;8.13;7.83;;;10.20;99.90;;;;;;5060169;28;21000;-72
2023/02/19 00:47:48;;;;;;;8.30;8.00;;;10.20;99.90;;;;;;5057384;28;20455;-73
2023/02/19 00:50:17;;;;;;;7.90;7.63;;;10.20;99.90;;;;;;5056706;28;20580;-73
2023/02/19 00:52:43;;;;;;;7.63;7.43;;;10.20;99.90;;;;;;5059372;28;20486;-73
2023/02/19 00:55:10;;;;;;;7.20;7.00;;;10.30;99.90;;;;;;5058104;28;20817;-73
2023/02/19 00:57:37;;;;;;;7.27;7.07;;;10.30;99.90;;;;;;5055183;28;20539;-73
2023/02/19 01:00:05;;;;;;;7.17;6.97;;;10.30;99.90;;;;;;5054433;28;21082;-73
2023/02/19 01:02:32;;;;;;;6.77;6.57;;;10.20;99.90;;;;;;5042926;28;20477;-73
2023/02/19 01:04:59;;;;;;;7.13;6.93;;;10.30;99.90;;;;;;5051148;28;20460;-73
2023/02/19 01:07:28;;;;;;;6.27;6.07;;;10.30;99.90;;;;;;5052734;28;20490;-73
2023/02/19 01:09:54;;;;;;;17.30;14.13;;;10.30;99.90;;;;;;5060865;28;20464;-72
2023/02/19 01:12:23;;;;;;;16.00;14.30;;;10.30;99.90;;;;;;5056492;28;21024;-72
2023/02/19 01:14:50;;;;;;;14.13;12.70;;;10.30;99.90;;;;;;5053459;28;21046;-73
2023/02/19 01:17:16;;;;;;;15.73;14.07;;;10.30;99.90;;;;;;5049919;28;20463;-72
2023/02/19 01:19:43;;;;;;;14.43;12.90;;;10.30;99.90;;;;;;5059137;28;20462;-73
2023/02/19 01:22:10;;;;;;;14.03;12.47;;;10.30;99.90;;;;;;5057275;28;21051;-73
2023/02/19 01:24:38;;;;;;;15.00;12.40;;;10.40;99.90;;;;;;5051948;28;20463;-73
2023/02/19 01:27:05;;;;;;;17.23;12.67;;;10.40;99.90;;;;;;5039798;28;20872;-73
2023/02/19 01:29:32;;;;;;;20.60;13.30;;;10.40;99.90;;;;;;5049190;28;20947;-73
2023/02/19 01:32:00;;;;;;;14.93;12.33;;;10.40;99.90;;;;;;5059891;28;20524;-72
2023/02/19 01:34:29;;;;;;;15.00;11.97;;;10.40;99.90;;;;;;5058958;28;20488;-72
2023/02/19 01:36:55;;;;;;;21.27;12.87;;;10.40;99.90;;;;;;5063300;28;20509;-73
2023/02/19 01:39:22;;;;;;;14.50;12.13;;;10.50;99.90;;;;;;5058974;28;20454;-73
2023/02/19 01:41:50;;;;;;;15.93;12.03;;;10.50;99.90;;;;;;5060943;28;20851;-72
2023/02/19 01:44:55;;;;;;;13.43;11.83;;;10.40;99.90;;;;;;5061637;28;20464;-73
2023/02/19 01:47:22;;;;;;;11.70;9.70;;;10.50;99.90;;;;;;5058831;28;20965;-74
2023/02/19 01:49:52;;;;;;;13.87;11.13;;;10.40;99.90;;;;;;5049456;28;20900;-72
2023/02/19 01:52:25;;;;;;;15.27;11.93;;;10.50;99.90;;;;;;5067772;28;20821;-73
2023/02/19 01:54:54;;;;;;;22.10;12.50;;;10.50;99.90;;;;;;5061887;28;20469;-75
2023/02/19 01:57:26;;;;;;;22.40;13.10;;;10.50;99.90;;;;;;5058576;28;20469;-74
2023/02/19 01:59:57;;;;;;;16.80;12.63;;;10.50;99.90;;;;;;5056050;28;20463;-72
2023/02/19 02:02:27;;;;;;;20.53;11.90;;;10.50;99.90;;;;;;5060348;28;20455;-72
2023/02/19 02:04:54;;;;;;;12.90;11.53;;;10.50;99.90;;;;;;5055674;28;20467;-74
2023/02/19 02:10:21;;;;;;;15.50;12.27;;;10.50;99.90;;;;;;5063914;28;21036;-72
2023/02/19 02:12:51;;;;;;;15.00;12.13;;;10.50;99.90;;;;;;5053394;28;20514;-73
2023/02/19 02:15:19;;;;;;;19.47;11.90;;;10.50;99.90;;;;;;5059828;28;20459;-75
2023/02/19 02:17:53;;;;;;;12.80;11.30;;;10.50;99.90;;;;;;5056031;28;20824;-74
2023/02/19 02:20:44;;;;;;;12.87;10.83;;;10.40;99.90;;;;;;5050328;28;20466;-74
2023/02/19 02:23:18;;;;;;;18.53;12.13;;;10.40;99.90;;;;;;5062346;28;21235;-74
2023/02/19 02:26:11;;;;;;;15.40;11.87;;;10.50;99.90;;;;;;5058205;28;20974;-72
2023/02/19 02:28:57;;;;;;;16.20;12.40;;;10.50;99.90;;;;;;5061908;28;20740;-72
2023/02/19 02:31:32;;;;;;;15.20;12.33;;;10.50;99.90;;;;;;5058799;28;20826;-73
2023/02/19 02:34:04;;;;;;;16.10;12.13;;;10.40;99.90;;;;;;5057968;28;20461;-73
2023/02/19 02:36:35;;;;;;;17.03;12.30;;;10.40;99.90;;;;;;5050614;28;20463;-72
2023/02/19 02:39:06;;;;;;;16.47;12.43;;;10.40;99.90;;;;;;5049410;28;20533;-73
2023/02/19 02:41:33;;;;;;;15.20;11.70;;;10.40;99.90;;;;;;5058405;28;20959;-73
2023/02/19 02:44:00;;;;;;;17.73;12.70;;;10.40;99.90;;;;;;5058406;28;20919;-72
2023/02/19 02:46:36;;;;;;;19.73;12.80;;;10.40;99.90;;;;;;5062191;28;20463;-74
2023/02/19 02:49:05;;;;;;;16.30;11.60;;;10.40;99.90;;;;;;5057800;28;20485;-73
2023/02/19 02:51:36;;;;;;;15.77;11.20;;;10.40;99.90;;;;;;5056403;28;20507;-73
2023/02/19 02:56:52;;;;;;;15.67;11.53;;;10.30;99.90;;;;;;5056138;28;20550;-72
2023/02/19 02:59:24;;;;;;;22.20;12.60;;;10.30;99.90;;;;;;5057377;28;20466;-72
2023/02/19 03:02:10;;;;;;;16.10;13.10;;;10.30;99.90;;;;;;5059182;28;20459;-75
2023/02/19 03:07:29;;;;;;;20.27;12.40;;;10.30;99.90;;;;;;5054764;28;20481;-72
2023/02/19 03:09:58;;;;;;;22.23;12.53;;;10.30;99.90;;;;;;5058835;28;20494;-73
2023/02/19 03:20:51;;;;;;;22.03;13.20;;;10.30;99.90;;;;;;5058709;28;20454;-75
2023/02/19 03:23:20;;;;;;;25.27;13.20;;;10.30;99.90;;;;;;5052747;28;20498;-72
2023/02/19 03:26:02;;;;;;;18.93;12.70;;;10.30;99.90;;;;;;5056372;28;20796;-73
2023/02/19 03:31:23;;;;;;;23.60;13.77;;;10.40;99.90;;;;;;5068710;28;20528;-73
2023/02/19 03:33:57;;;;;;;21.13;12.50;;;10.40;99.90;;;;;;5061583;28;20484;-74
2023/02/19 03:36:30;;;;;;;20.53;14.10;;;10.40;99.90;;;;;;5054197;28;20539;-73
2023/02/19 03:39:00;;;;;;;32.23;15.40;;;10.30;99.90;;;;;;5055427;28;20458;-72
2023/02/19 03:41:33;;;;;;;20.60;16.80;;;10.30;99.90;;;;;;5054076;28;20847;-71
2023/02/19 03:44:08;;;;;;;23.37;17.07;;;10.20;99.90;;;;;;5057685;28;20460;-71
2023/02/19 03:46:43;;;;;;;22.80;17.20;;;10.20;99.90;;;;;;5058944;28;20461;-72
2023/02/19 03:49:16;;;;;;;26.60;17.80;;;10.20;99.90;;;;;;5049962;28;21074;-72
2023/02/19 03:51:47;;;;;;;21.00;16.60;;;10.20;99.90;;;;;;5049956;28;20836;-72
2023/02/19 03:54:20;;;;;;;24.50;16.60;;;10.10;99.90;;;;;;5056416;28;20478;-71
2023/02/19 03:56:52;;;;;;;21.27;17.03;;;10.10;99.90;;;;;;5060457;28;20835;-72
2023/02/19 03:59:26;;;;;;;22.23;18.20;;;10.10;99.90;;;;;;5053326;28;20467;-71
2023/02/19 04:01:58;;;;;;;33.07;28.37;;;10.10;99.90;;;;;;5060581;28;20468;-71
2023/02/19 04:04:30;;;;;;;31.20;28.20;;;10.10;99.90;;;;;;5056746;28;20459;-71
2023/02/19 04:06:58;;;;;;;30.70;27.23;;;10.00;99.90;;;;;;5050758;28;20472;-72
2023/02/19 04:09:28;;;;;;;32.87;27.27;;;9.80;99.90;;;;;;5057241;28;20540;-72
2023/02/19 04:11:56;;;;;;;29.53;26.40;;;9.80;99.90;;;;;;5056404;28;20494;-72
2023/02/19 04:14:27;;;;;;;27.33;24.50;;;9.80;99.90;;;;;;5052648;28;20565;-72
2023/02/19 04:16:58;;;;;;;33.90;26.33;;;9.70;99.90;;;;;;5056518;28;20486;-75
2023/02/19 04:19:28;;;;;;;27.10;23.63;;;9.70;99.90;;;;;;5056434;28;20497;-75
2023/02/19 04:21:57;;;;;;;28.23;25.50;;;9.70;99.90;;;;;;5049988;28;20467;-73
2023/02/19 04:24:29;;;;;;;30.00;26.07;;;9.60;99.90;;;;;;5048007;28;20997;-73
2023/02/19 04:26:57;;;;;;;39.57;28.20;;;9.60;99.90;;;;;;5050787;28;20470;-73
2023/02/19 04:29:23;;;;;;;31.30;26.20;;;9.60;99.90;;;;;;5061441;28;20474;-75
2023/02/19 04:31:50;;;;;;;28.33;24.07;;;9.60;99.90;;;;;;5051152;28;20763;-73
2023/02/19 04:34:18;;;;;;;36.53;26.27;;;9.50;99.90;;;;;;5056164;28;20947;-73
2023/02/19 04:36:46;;;;;;;32.73;25.33;;;9.50;99.90;;;;;;5057128;28;20883;-75
2023/02/19 04:39:12;;;;;;;29.57;24.53;;;9.60;99.90;;;;;;5055928;28;20470;-74
2023/02/19 04:41:40;;;;;;;35.30;27.03;;;9.60;99.90;;;;;;5058569;28;20489;-75
2023/02/19 04:44:06;;;;;;;30.73;26.47;;;9.60;99.90;;;;;;5059184;28;20482;-73
2023/02/19 04:46:33;;;;;;;27.73;24.60;;;9.60;99.90;;;;;;5057538;28;20455;-75
2023/02/19 04:49:00;;;;;;;29.43;26.23;;;9.60;99.90;;;;;;5056878;28;20478;-74
2023/02/19 04:51:27;;;;;;;31.97;25.47;;;9.60;99.90;;;;;;5055242;28;20524;-72
2023/02/19 04:53:55;;;;;;;36.67;26.10;;;9.50;99.90;;;;;;5059052;28;20532;-74
2023/02/19 04:56:22;;;;;;;31.60;27.47;;;9.50;99.90;;;;;;5060365;28;20467;-73
2023/02/19 04:58:49;;;;;;;37.70;27.93;;;9.50;99.90;;;;;;5058669;28;20466;-72
2023/02/19 05:01:16;;;;;;;31.97;27.73;;;9.50;99.90;;;;;;5060581;28;20498;-72
2023/02/19 05:03:44;;;;;;;29.50;24.80;;;9.50;99.90;;;;;;5055919;28;20542;-73
2023/02/19 05:06:13;;;;;;;37.93;27.53;;;9.50;99.90;;;;;;5051412;28;20977;-73
2023/02/19 05:08:40;;;;;;;31.17;27.93;;;9.50;99.90;;;;;;5054325;28;20883;-72
2023/02/19 05:11:10;;;;;;;33.33;26.63;;;9.50;99.90;;;;;;5050553;28;20471;-73
2023/02/19 05:13:38;;;;;;;36.47;27.83;;;9.50;99.90;;;;;;5056879;28;20497;-75
2023/02/19 05:16:07;;;;;;;35.17;28.37;;;9.50;99.90;;;;;;5052642;28;20962;-75
2023/02/19 05:18:34;;;;;;;30.67;27.40;;;9.50;99.90;;;;;;5054432;28;20466;-75
2023/02/19 05:21:01;;;;;;;35.83;29.23;;;9.50;99.90;;;;;;5059446;28;20456;-75
2023/02/19 05:23:28;;;;;;;34.00;26.10;;;9.50;99.90;;;;;;5058055;28;20466;-74
2023/02/19 05:25:56;;;;;;;41.53;28.53;;;9.40;99.90;;;;;;5033298;28;20784;-74
2023/02/19 05:28:27;;;;;;;29.70;25.17;;;9.50;99.90;;;;;;5054752;28;20490;-74
2023/02/19 05:30:56;;;;;;;36.83;30.00;;;9.50;99.90;;;;;;5053194;28;20487;-74
2023/02/19 05:33:25;;;;;;;34.70;25.97;;;9.40;99.90;;;;;;5046861;28;20506;-75
2023/02/19 05:35:53;;;;;;;33.77;25.50;;;9.40;99.90;;;;;;5059037;28;20466;-73
2023/02/19 05:38:22;;;;;;;32.53;25.83;;;9.40;99.90;;;;;;5060242;28;20462;-74
2023/02/19 05:40:49;;;;;;;26.17;23.10;;;9.40;99.90;;;;;;5054612;28;20461;-74
2023/02/19 05:43:16;;;;;;;25.27;22.23;;;9.40;99.90;;;;;;5051763;28;20461;-74
2023/02/19 05:45:45;;;;;;;26.70;23.60;;;9.30;99.90;;;;;;5054530;28;20467;-75
2023/02/19 05:48:12;;;;;;;32.60;24.63;;;9.30;99.90;;;;;;5059127;28;21064;-74
2023/02/19 05:50:39;;;;;;;43.30;25.30;;;9.30;99.90;;;;;;5053650;28;20999;-74
2023/02/19 05:53:06;;;;;;;30.50;25.07;;;9.30;99.90;;;;;;5058867;28;20486;-73
2023/02/19 05:55:36;;;;;;;32.10;24.93;;;9.30;99.90;;;;;;5050851;28;20469;-74
2023/02/19 05:58:03;;;;;;;37.70;24.77;;;9.30;99.90;;;;;;5045217;28;20494;-74
2023/02/19 06:00:30;;;;;;;39.57;25.30;;;9.30;99.90;;;;;;5050892;28;20626;-74
2023/02/19 06:02:59;;;;;;;26.10;23.40;;;9.30;99.90;;;;;;5058054;28;20987;-74
2023/02/19 06:05:26;;;;;;;30.43;22.87;;;9.30;99.90;;;;;;5056607;28;20494;-75
2023/02/19 06:07:53;;;;;;;27.13;22.80;;;9.20;99.90;;;;;;5044378;28;21008;-73
2023/02/19 06:10:20;;;;;;;27.37;23.10;;;9.30;99.90;;;;;;5051021;28;20463;-74
2023/02/19 06:12:47;;;;;;;32.73;21.43;;;9.20;99.90;;;;;;5056399;28;20857;-74
2023/02/19 06:15:14;;;;;;;28.13;22.57;;;9.20;99.90;;;;;;5055725;28;20490;-75
2023/02/19 06:17:41;;;;;;;26.40;21.53;;;9.20;99.90;;;;;;5053322;28;20953;-74
2023/02/19 06:20:10;;;;;;;26.37;21.60;;;9.20;99.90;;;;;;5056235;28;20961;-74
2023/02/19 06:22:36;;;;;;;39.03;21.30;;;9.20;99.90;;;;;;5053460;28;20468;-72
2023/02/19 06:25:04;;;;;;;33.77;23.83;;;9.20;99.90;;;;;;5055135;28;20470;-73
2023/02/19 06:27:32;;;;;;;44.27;22.40;;;9.20;99.90;;;;;;5065101;28;20462;-73
2023/02/19 06:29:59;;;;;;;29.33;21.97;;;9.20;99.90;;;;;;5068115;28;20953;-73
2023/02/19 06:32:26;;;;;;;25.17;22.50;;;9.10;99.90;;;;;;5054022;28;20485;-72
2023/02/19 06:34:53;;;;;;;28.73;22.40;;;9.10;99.90;;;;;;5055437;28;20474;-73
2023/02/19 06:37:21;;;;;;;31.00;21.60;;;9.10;99.90;;;;;;5060326;28;20467;-74
2023/02/19 06:39:49;;;;;;;30.40;21.67;;;9.10;99.90;;;;;;5057965;28;20824;-73
2023/02/19 06:42:16;;;;;;;28.30;21.43;;;9.10;99.90;;;;;;5057783;28;20498;-74
2023/02/19 06:44:43;;;;;;;30.00;22.37;;;9.10;99.90;;;;;;5059020;28;20470;-73
2023/02/19 06:47:11;;;;;;;26.03;21.97;;;9.10;99.90;;;;;;5060440;28;20491;-73
2023/02/19 06:49:39;;;;;;;23.70;21.23;;;9.10;99.90;;;;;;5055286;28;21036;-73
2023/02/19 06:52:07;;;;;;;21.87;19.57;;;9.10;99.90;;;;;;5051680;28;21145;-74
2023/02/19 06:54:35;;;;;;;27.97;20.53;;;9.00;99.90;;;;;;5057552;28;20456;-74
2023/02/19 06:57:02;;;;;;;27.60;19.77;;;9.00;99.90;;;;;;5063564;28;20459;-74
2023/02/19 06:59:29;;;;;;;41.50;20.27;;;9.10;99.90;;;;;;5057883;28;20462;-74
2023/02/19 07:01:56;;;;;;;24.30;18.40;;;9.10;99.90;;;;;;5056265;28;20885;-74
2023/02/19 07:04:23;;;;;;;23.77;18.70;;;9.10;99.90;;;;;;5059217;28;20463;-73
2023/02/19 07:06:50;;;;;;;26.00;18.10;;;9.10;99.90;;;;;;5052328;28;20525;-73
2023/02/19 07:09:17;;;;;;;27.33;17.63;;;9.10;99.90;;;;;;5064814;28;21133;-74
2023/02/19 07:11:46;;;;;;;27.87;17.90;;;9.10;99.90;;;;;;5054579;28;20470;-74
2023/02/19 07:14:16;;;;;;;24.73;16.27;;;9.10;99.90;;;;;;5058216;28;20495;-73
2023/02/19 07:16:43;;;;;;;25.87;18.63;;;9.10;99.90;;;;;;5053073;28;20468;-74
2023/02/19 07:19:12;;;;;;;32.40;17.80;;;9.10;99.90;;;;;;5057942;28;20992;-73
2023/02/19 07:21:41;;;;;;;18.83;17.00;;;9.10;99.90;;;;;;5061732;28;20472;-73
2023/02/19 07:24:08;;;;;;;25.03;17.70;;;9.20;99.90;;;;;;5054941;28;20890;-74
2023/02/19 07:26:35;;;;;;;30.37;18.50;;;9.10;99.90;;;;;;5057185;28;20890;-74
2023/02/19 07:29:04;;;;;;;20.83;17.77;;;9.10;99.90;;;;;;5054664;28;20459;-73
2023/02/19 07:31:31;;;;;;;30.20;18.57;;;9.20;99.90;;;;;;5056493;28;20476;-74
2023/02/19 07:33:58;;;;;;;28.60;20.03;;;9.20;99.90;;;;;;5051055;28;20615;-72
2023/02/19 07:36:25;;;;;;;25.70;18.27;;;9.20;99.90;;;;;;5059498;28;20471;-73
2023/02/19 07:38:55;;;;;;;21.90;19.60;;;9.20;99.90;;;;;;5052323;28;21060;-73
2023/02/19 07:41:23;;;;;;;22.80;17.70;;;9.20;99.90;;;;;;5057989;28;20535;-73
2023/02/19 07:43:49;;;;;;;34.23;18.57;;;9.30;99.90;;;;;;5059735;28;20466;-74
2023/02/19 07:46:17;;;;;;;25.27;18.17;;;9.20;99.90;;;;;;5056970;28;20469;-74
2023/02/19 07:48:46;;;;;;;25.50;17.30;;;9.30;99.90;;;;;;5056656;28;20470;-73
2023/02/19 07:51:20;;;;;;;22.30;17.70;;;9.30;99.90;;;;;;5059172;28;20466;-72
2023/02/19 07:53:49;;;;;;;23.83;17.40;;;9.30;99.90;;;;;;5057304;28;20506;-73
2023/02/19 07:56:16;;;;;;;20.40;17.40;;;9.40;99.90;;;;;;5056324;28;20939;-75
2023/02/19 07:58:45;;;;;;;22.10;16.73;;;9.30;99.90;;;;;;5059168;28;20461;-74
2023/02/19 08:01:14;;;;;;;27.73;17.13;;;9.30;99.90;;;;;;5055983;28;20478;-73
2023/02/19 08:03:42;;;;;;;21.10;16.03;;;9.40;99.90;;;;;;5057902;28;20474;-74
2023/02/19 08:06:11;;;;;;;33.73;16.13;;;9.40;99.90;;;;;;5034804;28;20777;-75
2023/02/19 08:08:38;;;;;;;22.10;15.67;;;9.40;99.90;;;;;;5051796;28;20523;-72
2023/02/19 08:13:52;;;;;;;30.87;16.57;;;9.40;99.90;;;;;;5060931;28;20497;-74
2023/02/19 08:16:19;;;;;;;24.50;15.33;;;9.50;99.90;;;;;;5062205;28;20553;-74
2023/02/19 08:18:48;;;;;;;27.97;16.77;;;9.50;99.90;;;;;;5057492;28;20855;-73
2023/02/19 08:21:17;;;;;;;19.97;14.90;;;9.50;99.90;;;;;;5055550;28;20466;-73
2023/02/19 08:23:46;;;;;;;26.93;16.93;;;9.60;99.90;;;;;;5059994;28;20561;-71
2023/02/19 08:26:13;;;;;;;22.53;15.77;;;9.60;99.90;;;;;;5049512;28;20465;-72
2023/02/19 08:28:40;;;;;;;20.60;15.00;;;9.60;99.90;;;;;;5056345;28;20478;-71
2023/02/19 08:31:09;;;;;;;25.07;14.77;;;9.70;99.90;;;;;;5036857;28;20517;-72
2023/02/19 08:33:36;;;;;;;27.93;14.27;;;9.80;99.90;;;;;;5053945;28;20486;-73
2023/02/19 08:36:06;;;;;;;23.77;13.70;;;9.90;99.90;;;;;;5055855;28;20876;-72
2023/02/19 08:38:34;;;;;;;18.57;13.10;;;9.90;99.90;;;;;;5049130;28;20472;-72
2023/02/19 08:41:05;;;;;;;25.67;14.30;;;9.90;99.90;;;;;;5060847;28;21066;-71
2023/02/19 08:43:32;;;;;;;26.00;14.20;;;9.90;99.90;;;;;;5061301;28;20551;-71
2023/02/19 08:45:59;;;;;;;23.37;13.27;;;10.00;99.90;;;;;;5059306;28;20886;-74
2023/02/19 08:48:26;;;;;;;17.47;12.23;;;10.00;99.90;;;;;;5057051;28;20485;-74
2023/02/19 08:50:54;;;;;;;22.93;12.47;;;10.00;99.90;;;;;;5056703;28;20452;-74
2023/02/19 08:53:23;;;;;;;23.20;12.60;;;9.90;99.90;;;;;;5058678;28;20586;-70
2023/02/19 08:55:50;;;;;;;21.37;11.73;;;10.00;99.90;;;;;;5055795;28;21124;-74
2023/02/19 08:58:17;;;;;;;20.17;13.43;;;10.00;99.90;;;;;;5054967;28;20462;-73
2023/02/19 09:00:44;;;;;;;28.23;18.10;;;10.00;99.90;;;;;;5052946;28;20467;-71
2023/02/19 09:03:11;;;;;;;18.60;15.90;;;9.90;99.90;;;;;;5057146;28;20477;-69
2023/02/19 09:05:39;;;;;;;21.60;19.30;;;10.00;99.90;;;;;;5056068;28;20467;-70
2023/02/19 09:08:06;;;;;;;27.23;20.30;;;9.90;99.90;;;;;;5054334;28;20573;-70
2023/02/19 09:10:34;;;;;;;21.03;18.97;;;9.90;99.90;;;;;;5056670;28;20854;-72
2023/02/19 09:13:01;;;;;;;23.60;19.20;;;9.80;99.90;;;;;;5048358;28;20460;-71
2023/02/19 09:15:29;;;;;;;21.60;19.30;;;9.70;99.90;;;;;;5054315;28;21024;-72
2023/02/19 09:17:56;;;;;;;21.07;18.80;;;9.60;99.90;;;;;;5046671;28;20528;-71
2023/02/19 09:20:22;;;;;;;22.13;19.77;;;9.50;99.90;;;;;;5059793;28;21336;-72
2023/02/19 09:22:50;;;;;;;21.70;18.17;;;9.50;99.90;;;;;;5059175;28;20471;-75
2023/02/19 09:25:17;;;;;;;27.07;18.77;;;9.50;99.90;;;;;;5048978;28;20850;-72
2023/02/19 09:27:45;;;;;;;25.60;18.77;;;9.50;99.90;;;;;;5059080;28;20463;-72
2023/02/19 09:30:12;;;;;;;25.37;18.30;;;9.60;99.90;;;;;;5058289;28;21230;-72
2023/02/19 09:32:39;;;;;;;29.03;18.43;;;9.50;99.90;;;;;;5054699;28;21109;-72
2023/02/19 09:35:06;;;;;;;22.10;16.70;;;9.50;99.90;;;;;;5060805;28;20497;-72
2023/02/19 09:37:34;;;;;;;29.27;17.70;;;9.50;99.90;;;;;;5056903;28;20795;-73
2023/02/19 09:40:01;;;;;;;18.93;17.10;;;9.50;99.90;;;;;;5061606;28;20470;-72
2023/02/19 09:42:31;;;;;;;29.47;17.30;;;9.50;99.90;;;;;;5046592;28;20483;-70
2023/02/19 09:45:01;;;;;;;18.83;16.53;;;9.50;99.90;;;;;;5056099;28;20466;-72
2023/02/19 09:47:30;;;;;;;19.33;17.43;;;9.40;99.90;;;;;;5055618;28;20470;-72
2023/02/19 09:50:01;;;;;;;29.63;18.47;;;9.40;99.90;;;;;;5061300;28;20455;-73
2023/02/19 09:52:32;;;;;;;25.67;18.10;;;9.50;99.90;;;;;;5051794;28;20471;-71
2023/02/19 09:55:02;;;;;;;24.73;18.73;;;9.50;99.90;;;;;;5061661;28;20543;-74
2023/02/19 09:57:32;;;;;;;21.57;16.57;;;9.60;99.90;;;;;;5058148;28;20550;-74
2023/02/19 10:00:05;;;;;;;24.03;18.10;;;9.70;99.90;;;;;;5056322;28;20458;-73
2023/02/19 10:02:33;;;;;;;21.20;17.57;;;9.60;99.90;;;;;;5052156;28;20618;-74
2023/02/19 10:05:00;;;;;;;25.20;18.33;;;9.60;99.90;;;;;;5055546;28;20463;-69
2023/02/19 10:07:37;;;;;;;21.70;17.00;;;9.70;99.90;;;;;;5060408;28;21103;-73
2023/02/19 10:10:25;;;;;;;19.90;16.63;;;9.90;99.90;;;;;;5059237;28;20487;-71
2023/02/19 10:13:00;;;;;;;26.13;16.13;;;10.00;99.90;;;;;;5050171;28;20464;-73
2023/02/19 10:15:31;;;;;;;20.20;17.10;;;10.00;99.90;;;;;;5057610;28;20486;-72
2023/02/19 10:17:59;;;;;;;20.13;15.87;;;10.00;99.90;;;;;;5059876;28;20471;-73
2023/02/19 10:20:28;;;;;;;17.93;15.77;;;9.90;99.90;;;;;;5060914;28;20473;-72
2023/02/19 10:23:02;;;;;;;19.00;17.00;;;9.90;99.90;;;;;;5059939;28;20456;-72
2023/02/19 10:25:31;;;;;;;17.80;16.10;;;9.80;99.90;;;;;;5049033;28;20992;-70
2023/02/19 10:27:59;;;;;;;25.67;16.80;;;9.70;99.90;;;;;;5061454;28;20467;-69
2023/02/19 10:30:31;;;;;;;22.70;15.70;;;9.70;99.90;;;;;;5064165;28;20472;-71
2023/02/19 10:33:02;;;;;;;18.03;15.83;;;9.80;99.90;;;;;;5054156;28;20545;-71
2023/02/19 10:35:29;;;;;;;17.63;15.73;;;9.80;99.90;;;;;;5060125;28;20999;-71
2023/02/19 10:37:57;;;;;;;16.53;14.87;;;9.80;99.90;;;;;;5061011;28;20580;-75
2023/02/19 10:40:27;;;;;;;25.40;15.30;;;9.80;99.90;;;;;;5058633;28;20484;-74
2023/02/19 10:42:57;;;;;;;26.90;17.50;;;9.90;99.90;;;;;;5057219;28;20501;-70
2023/02/19 10:45:33;;;;;;;24.90;20.70;;;9.80;99.90;;;;;;5058975;28;20472;-71
2023/02/19 10:48:02;;;;;;;22.87;20.57;;;9.80;99.90;;;;;;5061930;28;20459;-74
2023/02/19 10:50:32;;;;;;;23.17;20.90;;;9.70;99.90;;;;;;5050969;28;20541;-69
2023/02/19 10:53:00;;;;;;;22.47;20.50;;;9.80;99.90;;;;;;5059876;28;20577;-70
2023/02/19 10:55:33;;;;;;;22.50;20.10;;;9.70;99.90;;;;;;5053956;28;21101;-72
2023/02/19 10:58:23;;;;;;;21.07;19.07;;;9.60;99.90;;;;;;5056441;28;20466;-72
2023/02/19 11:01:11;;;;;;;20.90;19.07;;;9.50;99.90;;;;;;5053852;28;20869;-71
2023/02/19 11:03:39;;;;;;;26.73;19.07;;;9.60;99.90;;;;;;5056697;28;20498;-73
2023/02/19 11:06:10;;;;;;;21.90;17.20;;;9.70;99.90;;;;;;5049591;28;20476;-74
2023/02/19 11:08:47;;;;;;;19.37;17.33;;;9.90;99.90;;;;;;5056216;28;20518;-72
2023/02/19 11:11:30;;;;;;;21.47;17.40;;;10.10;99.90;;;;;;5060289;28;20780;-74
2023/02/19 11:13:58;;;;;;;17.30;15.50;;;10.20;99.90;;;;;;5054729;28;20490;-73
2023/02/19 11:16:41;;;;;;;18.97;16.80;;;10.30;99.90;;;;;;5058550;28;20796;-73
2023/02/19 11:19:25;;;;;;;18.30;14.60;;;10.30;99.90;;;;;;5060063;28;20516;-73
2023/02/19 11:21:52;;;;;;;17.07;13.03;;;10.30;99.90;;;;;;5052301;28;21045;-74
2023/02/19 11:24:25;;;;;;;20.93;13.90;;;10.40;99.90;;;;;;5051351;28;20470;-73
2023/02/19 11:26:52;;;;;;;14.67;13.03;;;10.50;99.90;;;;;;5055671;28;20540;-73
2023/02/19 11:29:23;;;;;;;17.70;11.07;;;10.70;99.90;;;;;;5061560;28;20460;-74
2023/02/19 11:31:50;;;;;;;16.10;11.57;;;10.60;99.90;;;;;;5060133;28;20578;-72
2023/02/19 11:34:29;;;;;;;14.30;12.90;;;10.80;99.90;;;;;;5057531;28;20525;-72
2023/02/19 11:37:12;;;;;;;14.43;10.27;;;10.90;99.90;;;;;;5058323;28;20812;-74
2023/02/19 11:39:40;;;;;;;12.30;10.50;;;11.00;99.90;;;;;;5057972;28;20490;-73
2023/02/19 11:42:38;;;;;;;14.93;10.90;;;11.30;99.90;;;;;;5051508;28;20483;-74
2023/02/19 11:45:16;;;;;;;14.07;11.70;;;11.70;99.90;;;;;;5050415;28;20462;-75
2023/02/19 11:47:56;;;;;;;12.30;11.20;;;12.70;99.90;;;;;;5051716;28;20550;-75
2023/02/19 11:50:30;;;;;;;12.50;11.40;;;13.10;99.90;;;;;;5050058;28;20460;-73
2023/02/19 11:53:10;;;;;;;13.40;12.17;;;12.80;99.90;;;;;;5048210;28;20945;-75
2023/02/19 11:55:49;;;;;;;13.17;11.97;;;12.30;99.90;;;;;;5058173;28;20502;-74
2023/02/19 11:58:39;;;;;;;14.63;13.03;;;12.00;99.90;;;;;;5062193;28;20466;-73
2023/02/19 12:01:17;;;;;;;17.30;11.73;;;11.70;99.90;;;;;;5064604;28;20486;-75
2023/02/19 12:04:08;;;;;;;13.13;12.03;;;11.60;99.90;;;;;;5050305;28;20464;-73
2023/02/19 12:06:46;;;;;;;12.80;11.80;;;11.40;99.90;;;;;;5055744;28;20467;-72
2023/02/19 12:09:28;;;;;;;14.90;12.93;;;11.30;99.90;;;;;;5058832;28;20485;-73
2023/02/19 12:12:26;;;;;;;18.33;16.93;;;11.20;99.90;;;;;;5053039;28;20470;-73
2023/02/19 12:15:25;;;;;;;21.67;17.97;;;11.10;99.90;;;;;;5036352;28;20872;-71
2023/02/19 12:18:36;;;;;;;17.60;16.00;;;10.80;99.90;;;;;;5030188;28;20462;-72
2023/02/19 12:21:17;;;;;;;16.70;15.30;;;10.70;99.90;;;;;;4982051;28;20636;-72
2023/02/19 12:24:03;;;;;;;15.70;14.23;;;10.70;99.90;;;;;;5045667;28;20904;-72
2023/02/19 12:26:35;;;;;;;15.20;14.17;;;10.80;99.90;;;;;;5052723;28;20490;-72
2023/02/19 12:29:30;;;;;;;12.03;10.77;;;10.80;99.90;;;;;;5059971;28;20829;-73
2023/02/19 12:32:26;;;;;;;15.87;9.13;;;10.80;99.90;;;;;;5051336;28;20487;-72
2023/02/19 12:35:44;;;;;;;10.00;9.20;;;10.70;99.90;;;;;;5053286;28;20488;-75
2023/02/19 12:38:22;;;;;;;9.60;8.63;;;10.70;99.90;;;;;;5052649;28;20634;-72
2023/02/19 12:41:15;;;;;;;9.33;8.40;;;10.80;99.90;;;;;;5053975;28;21249;-72
2023/02/19 12:43:51;;;;;;;9.73;8.20;;;10.90;99.90;;;;;;5054185;28;20879;-72
2023/02/19 12:46:23;;;;;;;8.90;7.97;;;11.00;99.90;;;;;;5060905;28;20561;-73
2023/02/19 12:48:55;;;;;;;8.10;7.50;;;11.00;99.90;;;;;;5058411;28;20455;-73
2023/02/19 12:51:28;;;;;;;9.63;8.83;;;11.10;99.90;;;;;;5054503;28;20459;-73
2023/02/19 12:54:01;;;;;;;9.33;7.70;;;11.20;99.90;;;;;;5055679;28;20552;-75
2023/02/19 12:56:35;;;;;;;9.23;8.43;;;11.30;99.90;;;;;;5049581;28;20853;-72
2023/02/19 12:59:07;;;;;;;9.53;8.47;;;11.30;99.90;;;;;;5057325;28;20545;-73
2023/02/19 13:01:40;;;;;;;12.37;8.70;;;11.40;99.90;;;;;;5059723;28;20466;-73
2023/02/19 13:04:17;;;;;;;12.10;8.93;;;11.30;99.90;;;;;;5057996;28;20516;-74
2023/02/19 13:06:51;;;;;;;10.67;9.50;;;11.40;99.90;;;;;;5049380;28;20471;-73
2023/02/19 13:09:25;;;;;;;10.67;9.63;;;11.50;99.90;;;;;;5056548;28;20484;-74
2023/02/19 13:11:58;;;;;;;10.30;9.43;;;11.60;99.90;;;;;;5059582;28;20462;-71
2023/02/19 13:14:32;;;;;;;13.03;9.67;;;11.60;99.90;;;;;;5057168;28;20492;-71
2023/02/19 13:17:04;;;;;;;11.00;10.00;;;11.60;99.90;;;;;;5063758;28;20502;-72